الصفحة الرئيسية
METAR-TAF:

METAR-TAF

مطار :

Hambantota, سريلانكا

دائرة عرض: 06-17-20N, خط طول: 81-07-25E, ارتفاع: 48 متر

مراقبة الطقس الحالي

تاريخ ووقت الإصدار 1ساعة و 36 دقيقة قبل الساعة 21:10UTC
ريح 9 عقدة من الجنوب الغربي
درجة الحرارة 27°درجة مئوية
الرطوبة 100%
ضغط 1006 hPa
الرؤية: 9000 متر
غيوم متفرقة على ارتفاع 1800 قدم
غيوم قليلة على ارتفاع 2000 قدم, مزنة ركامية.
عاصفة رعدية

METAR: VCRI 022110Z 22009KT 9000 TS SCT018 FEW020CB 27/27 Q1006 NOSIG W

زمن: 04:16 (22:46 UTC)

توقعات

تاريخ ووقت الإصدار 11ساعات و 46 دقيقة قبل الساعة 11:00UTC
التوقعات صالحة من02 الساعة 12 UTC إلى 03 الساعة 18 UTC
ريح 10 عقدة من الجنوب الغربي تتزايد حتى 20 عقدة
الرؤية 10 كم أو أكثر
غيوم قليلة على ارتفاع 1800 قدم
أصبح
من 03 الساعة 14 UTC إلى 03 الساعة 16 UTC
ريح 8 عقدة من الجنوب الغربي
أصبح
من 03 الساعة 04 UTC إلى 03 الساعة 06 UTC
ريح 15 عقدة من الغرب/الجنوب الغربي تتزايد حتى 25 عقدة
أصبح
من 03 الساعة 14 UTC إلى 03 الساعة 16 UTC
ريح 8 عقدة من الجنوب الغربي

TAF: VCRI 021100Z 0212/0318 23010G20KT 9999 FEW018 TX35/0307Z TN26/0300Z BECMG 0314/0316 22008KT BECMG 0304/0306 25015G25KT BECMG 0314/0316 23008KT

أرصاد الطقس والتوقعات من أكثر من 4000 مطار (تقارير الطقس للمطار METAR والتنبؤ بالطقس بالمطارTAF).

المحطات المتاحة هي النقط الصفراء والحمراء على الخريطة.

حرك المؤشر فوق النقطة لمعرفة اسم المحطة.

ثم انقر لمعرفة أرصاد وتوقعات الطقس.

لتغيير الخارطة: اضغط على الأزرار الخضراء مع رمز الصليب الأسود للتكبير. على الزر الأخضر مع شرطة للتصغير، أو على الأسهم الخضراء للخرائط المجاورة.


METAR-TAF: